Time;durP1;ratioP1;P1;durP2;ratioP2;P2;SDS_P1;SDS_P2;PMS_P1;PMS_P2;Temp;Humidity;BMP_temperature;BMP_pressure;BME280_temperature;BME280_humidity;BME280_pressure;Samples;Min_cycle;Max_cycle;Signal;HPM_P1;HPM_P2
2022/08/03 00:01:21;;;;;;;3.38;2.20;;;;;;;-148.56;100.00;61375.16;4938369;28;20030;-30
2022/08/03 00:03:47;;;;;;;3.20;2.42;;;;;;;-148.56;100.00;61375.16;4937076;28;20038;-30
2022/08/03 00:06:12;;;;;;;6.13;2.47;;;;;;;-148.56;100.00;61375.16;4934761;28;20128;-30
2022/08/03 00:08:37;;;;;;;2.88;2.10;;;;;;;-148.56;100.00;61375.16;4932916;28;20033;-31
2022/08/03 00:11:03;;;;;;;4.90;2.58;;;;;;;-148.56;100.00;61375.16;4929056;28;20044;-26
2022/08/03 00:13:28;;;;;;;6.03;2.40;;;;;;;-148.56;100.00;61375.16;4938110;28;21040;-29
2022/08/03 00:15:54;;;;;;;2.72;2.28;;;;;;;-148.56;100.00;61375.16;4932782;28;20037;-27
2022/08/03 00:18:19;;;;;;;3.55;2.30;;;;;;;-148.56;100.00;61375.16;4934659;28;20077;-28
2022/08/03 00:20:45;;;;;;;3.90;2.90;;;;;;;-148.56;100.00;61375.16;4937325;28;22567;-28
2022/08/03 00:23:10;;;;;;;2.45;2.17;;;;;;;-148.56;100.00;61375.16;4934189;28;20038;-28
2022/08/03 00:25:35;;;;;;;2.92;2.28;;;;;;;-148.56;100.00;61375.16;4936333;28;20049;-29
2022/08/03 00:28:02;;;;;;;5.47;2.50;;;;;;;-148.56;100.00;61375.16;4931733;28;20126;-25
2022/08/03 00:30:27;;;;;;;4.07;2.13;;;;;;;-148.56;100.00;61375.16;4932092;28;20035;-29
2022/08/03 00:32:53;;;;;;;2.50;2.30;;;;;;;-148.56;100.00;61375.16;4932783;28;20049;-29
2022/08/03 00:35:18;;;;;;;3.55;2.28;;;;;;;-148.56;100.00;61375.16;4937672;28;20034;-30
2022/08/03 00:37:44;;;;;;;3.35;2.30;;;;;;;-148.56;100.00;61375.16;4932458;28;20065;-32
2022/08/03 00:40:13;;;;;;;2.85;2.30;;;;;;;-148.56;100.00;61375.16;4934416;28;20043;-25
2022/08/03 00:42:49;;;;;;;5.15;2.45;;;;;;;-148.56;100.00;61375.16;4932286;28;20114;-28
2022/08/03 00:45:16;;;;;;;6.55;2.40;;;;;;;-148.56;100.00;61375.16;4936340;28;20105;-27
2022/08/03 00:47:42;;;;;;;3.80;2.30;;;;;;;-148.56;100.00;61375.16;4933651;28;20128;-29
2022/08/03 00:50:07;;;;;;;5.35;2.40;;;;;;;-148.56;100.00;61375.16;4930026;28;20038;-31
2022/08/03 00:52:33;;;;;;;5.20;2.38;;;;;;;-148.56;100.00;61375.16;4929785;28;20242;-29
2022/08/03 00:55:00;;;;;;;4.93;2.33;;;;;;;-148.56;100.00;61375.16;4935080;28;20060;-29
2022/08/03 00:57:25;;;;;;;2.60;2.20;;;;;;;-148.56;100.00;61375.16;4929088;28;20030;-26
2022/08/03 00:59:50;;;;;;;5.00;2.40;;;;;;;-148.56;100.00;61375.16;4930856;28;20050;-35
2022/08/03 01:02:16;;;;;;;4.13;2.13;;;;;;;-148.56;100.00;61375.16;4936856;28;20615;-29
2022/08/03 01:04:41;;;;;;;2.70;2.38;;;;;;;-148.56;100.00;61375.16;4928374;28;20033;-25
2022/08/03 01:07:39;;;;;;;4.13;2.55;;;;;;;-148.56;100.00;61375.16;4925484;28;20030;-28
2022/08/03 01:10:07;;;;;;;2.78;2.45;;;;;;;-148.56;100.00;61375.16;4929910;28;20042;-28
2022/08/03 01:12:48;;;;;;;3.67;2.40;;;;;;;-148.56;100.00;61375.16;4934218;28;20030;-29
2022/08/03 01:15:28;;;;;;;2.88;2.28;;;;;;;-148.56;100.00;61375.16;4928054;28;20052;-31
2022/08/03 01:18:17;;;;;;;3.05;2.20;;;;;;;-148.56;100.00;61375.16;4929518;28;20034;-25
2022/08/03 01:20:52;;;;;;;3.22;2.20;;;;;;;-148.56;100.00;61375.16;4931373;28;20034;-31
2022/08/03 01:23:45;;;;;;;5.15;2.50;;;;;;;-148.56;100.00;61375.16;4928285;28;20038;-30
2022/08/03 01:26:32;;;;;;;3.05;2.22;;;;;;;-148.56;100.00;61375.16;4928892;28;20121;-28
2022/08/03 01:29:16;;;;;;;3.20;2.30;;;;;;;-148.56;100.00;61375.16;4935109;28;20694;-27
2022/08/03 01:31:43;;;;;;;5.07;2.70;;;;;;;-148.56;100.00;61375.16;4933989;28;20733;-29
2022/08/03 01:34:10;;;;;;;3.53;2.50;;;;;;;-148.56;100.00;61375.16;4921621;28;20582;-29
2022/08/03 01:36:38;;;;;;;3.70;2.40;;;;;;;-148.56;100.00;61375.16;4933595;28;20034;-26
2022/08/03 01:39:08;;;;;;;3.30;2.50;;;;;;;-148.56;100.00;61375.16;4929808;28;20030;-25
2022/08/03 01:41:35;;;;;;;3.28;2.80;;;;;;;-148.56;100.00;61375.16;4931088;28;20026;-30
2022/08/03 01:44:01;;;;;;;5.25;2.65;;;;;;;-148.56;100.00;61375.16;4929802;28;20034;-31
2022/08/03 01:46:27;;;;;;;2.58;2.30;;;;;;;-148.56;100.00;61375.16;4929521;28;20643;-30
2022/08/03 01:48:53;;;;;;;3.13;2.53;;;;;;;-148.56;100.00;61375.16;4926313;28;20038;-28
2022/08/03 01:51:18;;;;;;;3.00;2.20;;;;;;;-148.56;100.00;61375.16;4923614;28;20112;-26
2022/08/03 01:53:44;;;;;;;2.92;2.50;;;;;;;-148.56;100.00;61375.16;4920027;28;20700;-31
2022/08/03 01:56:10;;;;;;;3.40;2.40;;;;;;;-148.56;100.00;61375.16;4928944;28;20153;-29
2022/08/03 01:58:35;;;;;;;2.88;2.42;;;;;;;-148.56;100.00;61375.16;4932264;28;20227;-30
2022/08/03 02:01:01;;;;;;;3.72;2.53;;;;;;;-148.56;100.00;61375.16;4931724;28;20038;-31
2022/08/03 02:03:31;;;;;;;3.00;2.30;;;;;;;-148.56;100.00;61375.16;4932000;28;20022;-28
2022/08/03 02:05:56;;;;;;;5.43;2.38;;;;;;;-148.56;100.00;61375.16;4945455;28;20129;-29
2022/08/03 02:08:22;;;;;;;3.05;2.15;;;;;;;-148.56;100.00;61375.16;4935887;28;20153;-32
2022/08/03 02:10:47;;;;;;;3.58;2.30;;;;;;;-148.56;100.00;61375.16;4938071;28;20113;-28
2022/08/03 02:13:13;;;;;;;3.78;2.25;;;;;;;-148.56;100.00;61375.16;4929103;28;20045;-28
2022/08/03 02:15:38;;;;;;;3.92;2.30;;;;;;;-148.56;100.00;61375.16;4913815;28;20871;-28
2022/08/03 02:18:05;;;;;;;6.03;2.60;;;;;;;-148.56;100.00;61375.16;4916964;28;20137;-24
2022/08/03 02:20:31;;;;;;;2.30;1.98;;;;;;;-148.56;100.00;61375.16;4948292;28;20215;-29
2022/08/03 02:22:57;;;;;;;4.45;2.40;;;;;;;-148.56;100.00;61375.16;4932041;28;20031;-27
2022/08/03 02:25:22;;;;;;;3.15;2.25;;;;;;;-148.56;100.00;61375.16;4937541;28;20043;-29
2022/08/03 02:27:51;;;;;;;2.85;2.00;;;;;;;-148.56;100.00;61375.16;4934467;28;20018;-27
2022/08/03 02:30:17;;;;;;;3.17;2.00;;;;;;;-148.56;100.00;61375.16;4930036;28;20044;-31
2022/08/03 02:32:43;;;;;;;7.45;2.40;;;;;;;-148.56;100.00;61375.16;4926521;28;20026;-30
2022/08/03 02:35:10;;;;;;;3.90;2.30;;;;;;;-148.56;100.00;61375.16;4932292;28;20104;-30
2022/08/03 02:37:46;;;;;;;3.80;2.20;;;;;;;-148.56;100.00;61375.16;4934052;28;20121;-25
2022/08/03 02:40:12;;;;;;;2.33;2.03;;;;;;;-148.56;100.00;61375.16;4927791;28;20096;-27
2022/08/03 02:42:38;;;;;;;2.40;2.20;;;;;;;-148.56;100.00;61375.16;4914685;28;20144;-26
2022/08/03 02:45:05;;;;;;;2.95;2.20;;;;;;;-148.56;100.00;61375.16;4912887;28;20162;-25
2022/08/03 02:47:31;;;;;;;5.85;2.25;;;;;;;-148.56;100.00;61375.16;4920659;28;20030;-29
2022/08/03 02:49:57;;;;;;;4.05;2.50;;;;;;;-148.56;100.00;61375.16;4919497;28;20084;-27
2022/08/03 02:52:24;;;;;;;3.38;2.20;;;;;;;-148.56;100.00;61375.16;4933913;28;20062;-29
2022/08/03 02:54:55;;;;;;;4.00;2.25;;;;;;;-148.56;100.00;61375.16;4916541;28;20039;-25
2022/08/03 02:57:20;;;;;;;2.88;2.25;;;;;;;-148.56;100.00;61375.16;4939463;28;20583;-28
2022/08/03 02:59:46;;;;;;;2.30;2.10;;;;;;;-148.56;100.00;61375.16;4931293;28;20045;-23
2022/08/03 03:02:11;;;;;;;2.40;2.10;;;;;;;-148.56;100.00;61375.16;4917911;28;20745;-27
2022/08/03 03:04:36;;;;;;;6.97;2.10;;;;;;;-148.56;100.00;61375.16;4929387;28;20344;-27
2022/08/03 03:07:02;;;;;;;2.42;2.22;;;;;;;-148.56;100.00;61375.16;4941339;28;22007;-30
2022/08/03 03:09:27;;;;;;;3.70;2.22;;;;;;;-148.56;100.00;61375.16;4927589;28;20050;-29
2022/08/03 03:11:53;;;;;;;2.17;1.98;;;;;;;-148.56;100.00;61375.16;4931692;28;20218;-30
2022/08/03 03:14:18;;;;;;;2.95;2.30;;;;;;;-148.56;100.00;61375.16;4934985;28;20042;-28
2022/08/03 03:16:44;;;;;;;4.65;2.47;;;;;;;-148.56;100.00;61375.16;4940357;28;20030;-25
2022/08/03 03:19:10;;;;;;;3.55;2.08;;;;;;;-148.56;100.00;61375.16;4921654;28;20034;-30
2022/08/03 03:21:36;;;;;;;3.60;2.47;;;;;;;-148.56;100.00;61375.16;4932592;28;20045;-28
2022/08/03 03:24:01;;;;;;;3.33;2.20;;;;;;;-148.56;100.00;61375.16;4931848;28;20057;-29
2022/08/03 03:26:26;;;;;;;3.42;2.30;;;;;;;-148.56;100.00;61375.16;4934488;28;20981;-28
2022/08/03 03:28:52;;;;;;;5.68;2.40;;;;;;;-148.56;100.00;61375.16;4933326;28;20030;-27
2022/08/03 03:31:17;;;;;;;4.30;2.50;;;;;;;-148.56;100.00;61375.16;4933012;28;20049;-31
2022/08/03 03:33:42;;;;;;;5.00;2.35;;;;;;;-148.56;100.00;61375.16;4923500;28;20030;-31
2022/08/03 03:36:08;;;;;;;2.90;2.15;;;;;;;-148.56;100.00;61375.16;4933625;28;20057;-29
2022/08/03 03:38:34;;;;;;;4.45;2.20;;;;;;;-148.56;100.00;61375.16;4917558;28;20045;-29
2022/08/03 03:40:59;;;;;;;2.40;2.20;;;;;;;-148.56;100.00;61375.16;4932309;28;20086;-25
2022/08/03 03:43:25;;;;;;;3.63;2.10;;;;;;;-148.56;100.00;61375.16;4936863;28;20030;-29
2022/08/03 03:45:51;;;;;;;3.28;2.28;;;;;;;-148.56;100.00;61375.16;4935969;28;20046;-27
2022/08/03 03:48:17;;;;;;;5.25;2.08;;;;;;;-148.56;100.00;61375.16;4930568;28;20030;-27
2022/08/03 03:50:43;;;;;;;3.25;2.30;;;;;;;-148.56;100.00;61375.16;4934833;28;20360;-24
2022/08/03 03:53:09;;;;;;;2.63;2.05;;;;;;;-148.56;100.00;61375.16;4927588;28;20088;-29
2022/08/03 03:55:38;;;;;;;3.35;2.25;;;;;;;-148.56;100.00;61375.16;4932557;28;20030;-28
2022/08/03 03:58:04;;;;;;;4.85;2.60;;;;;;;-148.56;100.00;61375.16;4927142;28;20067;-26
2022/08/03 04:00:29;;;;;;;3.80;2.60;;;;;;;-148.56;100.00;61375.16;4931186;28;20261;-26
2022/08/03 04:02:55;;;;;;;3.50;2.50;;;;;;;-148.56;100.00;61375.16;4936452;28;20069;-25
2022/08/03 04:10:59;;;;;;;5.65;2.20;;;;;;;-148.56;100.00;61375.16;4931749;28;20044;-28
2022/08/03 04:13:36;;;;;;;6.03;2.58;;;;;;;-148.56;100.00;61375.16;4921404;28;20041;-28
2022/08/03 04:16:01;;;;;;;6.32;2.28;;;;;;;-148.56;100.00;61375.16;4931650;28;20051;-30
2022/08/03 04:18:28;;;;;;;4.43;2.35;;;;;;;-148.56;100.00;61375.16;4932554;28;20034;-27
2022/08/03 04:20:53;;;;;;;4.65;2.40;;;;;;;-148.56;100.00;61375.16;4931973;28;20045;-27
2022/08/03 04:23:20;;;;;;;3.25;2.17;;;;;;;-148.56;100.00;61375.16;4927279;28;20042;-27
2022/08/03 04:25:45;;;;;;;3.75;2.20;;;;;;;-148.56;100.00;61375.16;4917591;28;20046;-29
2022/08/03 04:28:10;;;;;;;3.00;2.15;;;;;;;-148.56;100.00;61375.16;4930954;28;20046;-28
2022/08/03 04:30:36;;;;;;;2.72;2.13;;;;;;;-148.56;100.00;61375.16;4934404;28;20067;-26
2022/08/03 04:33:02;;;;;;;4.35;2.60;;;;;;;-148.56;100.00;61375.16;4930255;28;20069;-30
2022/08/03 04:35:31;;;;;;;4.70;2.20;;;;;;;-148.56;100.00;61375.16;4930049;28;20097;-29
2022/08/03 04:38:00;;;;;;;3.00;2.30;;;;;;;-148.56;100.00;61375.16;4932298;28;20065;-25
2022/08/03 04:40:33;;;;;;;5.53;2.92;;;;;;;-148.56;100.00;61375.16;4934941;28;20022;-30
2022/08/03 04:42:58;;;;;;;4.25;2.28;;;;;;;-148.56;100.00;61375.16;4923295;28;20046;-27
2022/08/03 04:45:24;;;;;;;5.93;2.40;;;;;;;-148.56;100.00;61375.16;4923444;28;20036;-27
2022/08/03 04:47:49;;;;;;;4.25;2.40;;;;;;;-148.56;100.00;61375.16;4927762;28;20042;-28
2022/08/03 04:50:15;;;;;;;3.90;2.20;;;;;;;-148.56;100.00;61375.16;4926676;28;20061;-28
2022/08/03 04:52:40;;;;;;;2.97;2.00;;;;;;;-148.56;100.00;61375.16;4912171;28;20041;-26
2022/08/03 04:55:06;;;;;;;4.20;2.20;;;;;;;-148.56;100.00;61375.16;4932605;28;20118;-29
2022/08/03 04:57:31;;;;;;;6.63;2.30;;;;;;;-148.56;100.00;61375.16;4931780;28;20589;-25
2022/08/03 04:59:56;;;;;;;3.50;2.25;;;;;;;-148.56;100.00;61375.16;4928789;28;20030;-28
2022/08/03 05:02:22;;;;;;;3.25;2.28;;;;;;;-148.56;100.00;61375.16;4926086;28;20030;-27
2022/08/03 05:04:47;;;;;;;4.65;2.40;;;;;;;-148.56;100.00;61375.16;4920628;28;20037;-25
2022/08/03 05:07:13;;;;;;;4.18;2.45;;;;;;;-148.56;100.00;61375.16;4928842;28;20234;-27
2022/08/03 05:09:39;;;;;;;3.15;2.20;;;;;;;-148.56;100.00;61375.16;4930084;28;20091;-28
2022/08/03 05:12:05;;;;;;;2.58;2.10;;;;;;;-148.56;100.00;61375.16;4923204;28;20049;-29
2022/08/03 05:14:31;;;;;;;4.43;2.35;;;;;;;-148.56;100.00;61375.16;4931959;28;20375;-29
2022/08/03 05:16:56;;;;;;;4.53;2.33;;;;;;;-148.56;100.00;61375.16;4934968;28;20041;-27
2022/08/03 05:19:22;;;;;;;2.92;2.45;;;;;;;-148.56;100.00;61375.16;4934684;28;20034;-30
2022/08/03 05:21:47;;;;;;;3.70;2.03;;;;;;;-148.56;100.00;61375.16;4937932;28;20034;-27
2022/08/03 05:24:13;;;;;;;6.95;2.30;;;;;;;-148.56;100.00;61375.16;4935742;28;20026;-25
2022/08/03 05:26:38;;;;;;;4.70;2.20;;;;;;;-148.56;100.00;61375.16;4930174;28;20653;-27
2022/08/03 05:29:03;;;;;;;5.55;2.50;;;;;;;-148.56;100.00;61375.16;4929193;28;20030;-26
2022/08/03 05:31:29;;;;;;;5.68;2.60;;;;;;;-148.56;100.00;61375.16;4924838;28;20121;-30
2022/08/03 05:33:55;;;;;;;4.78;2.67;;;;;;;-148.56;100.00;61375.16;4919824;28;20111;-30
2022/08/03 05:36:21;;;;;;;7.13;2.33;;;;;;;-148.56;100.00;61375.16;4933993;28;20033;-32
2022/08/03 05:38:46;;;;;;;9.15;2.72;;;;;;;-148.56;100.00;61375.16;4946821;28;20146;-28
2022/08/03 05:41:12;;;;;;;4.03;2.17;;;;;;;-148.56;100.00;61375.16;4931159;28;20516;-29
2022/08/03 05:43:37;;;;;;;7.35;2.40;;;;;;;-148.56;100.00;61375.16;4928326;28;20803;-29
2022/08/03 05:46:03;;;;;;;2.97;2.13;;;;;;;-148.56;100.00;61375.16;4926154;28;20057;-26
2022/08/03 05:48:28;;;;;;;9.23;2.80;;;;;;;-148.56;100.00;61375.16;4934993;28;20030;-28
2022/08/03 05:50:53;;;;;;;5.88;2.65;;;;;;;-148.56;100.00;61375.16;4933254;28;20049;-26
2022/08/03 05:53:19;;;;;;;11.13;3.10;;;;;;;-148.56;100.00;61375.16;4934432;28;20148;-30
2022/08/03 05:55:44;;;;;;;9.38;3.22;;;;;;;-148.56;100.00;61375.16;4933684;28;20791;-29
2022/08/03 05:58:09;;;;;;;9.98;3.88;;;;;;;-148.56;100.00;61375.16;4929030;28;21538;-28
2022/08/03 06:00:35;;;;;;;8.45;3.13;;;;;;;-148.56;100.00;61375.16;4927927;28;20665;-30
2022/08/03 06:03:01;;;;;;;21.70;3.92;;;;;;;-148.56;100.00;61375.16;4924429;28;20053;-28
2022/08/03 06:05:27;;;;;;;15.93;3.50;;;;;;;-148.56;100.00;61375.16;4924881;28;20023;-30
2022/08/03 06:07:52;;;;;;;20.65;4.22;;;;;;;-148.56;100.00;61375.16;4930474;28;20038;-29
2022/08/03 06:10:19;;;;;;;14.65;3.70;;;;;;;-148.56;100.00;61375.16;4930604;28;20285;-29
2022/08/03 06:12:46;;;;;;;18.63;3.67;;;;;;;-148.56;100.00;61375.16;4928281;28;20030;-25
2022/08/03 06:15:12;;;;;;;19.13;4.10;;;;;;;-148.56;100.00;61375.16;4930815;28;20152;-31
2022/08/03 06:17:47;;;;;;;17.50;3.20;;;;;;;-148.56;100.00;61375.16;4924969;28;20042;-30
2022/08/03 06:20:12;;;;;;;17.35;3.72;;;;;;;-148.56;100.00;61375.16;4926222;28;20129;-26
2022/08/03 06:22:38;;;;;;;19.58;4.13;;;;;;;-148.56;100.00;61375.16;4937900;28;20066;-30
2022/08/03 06:25:05;;;;;;;12.38;3.38;;;;;;;-148.56;100.00;61375.16;4936069;28;20602;-29
2022/08/03 06:27:30;;;;;;;20.63;3.90;;;;;;;-148.56;100.00;61375.16;4945151;28;20030;-28
2022/08/03 06:29:55;;;;;;;14.60;3.75;;;;;;;-148.56;100.00;61375.16;4940015;28;20035;-25
2022/08/03 06:32:21;;;;;;;21.63;4.03;;;;;;;-148.56;100.00;61375.16;4932782;28;20026;-29
2022/08/03 06:34:47;;;;;;;16.92;3.80;;;;;;;-148.56;100.00;61375.16;4933187;28;21505;-29
2022/08/03 06:37:13;;;;;;;10.75;3.40;;;;;;;-148.56;100.00;61375.16;4936154;28;20061;-24
2022/08/03 06:39:38;;;;;;;14.40;3.50;;;;;;;-148.56;100.00;61375.16;4932264;28;20038;-29
2022/08/03 06:42:03;;;;;;;16.95;3.47;;;;;;;-148.56;100.00;61375.16;4932306;28;21478;-27
2022/08/03 06:44:29;;;;;;;16.02;3.72;;;;;;;-148.56;100.00;61375.16;4928901;28;20045;-29
2022/08/03 06:46:54;;;;;;;17.60;3.80;;;;;;;-148.56;100.00;61375.16;4932873;28;20069;-29
2022/08/03 06:49:20;;;;;;;16.30;3.50;;;;;;;-148.56;100.00;61375.16;4939702;28;20044;-27
2022/08/03 06:51:45;;;;;;;9.43;3.45;;;;;;;-148.56;100.00;61375.16;4929212;28;20152;-26
2022/08/03 06:54:11;;;;;;;11.75;3.30;;;;;;;-148.56;100.00;61375.16;4930157;28;20072;-30
2022/08/03 06:56:36;;;;;;;9.95;3.20;;;;;;;-148.56;100.00;61375.16;4928739;28;20038;-25
2022/08/03 06:59:02;;;;;;;12.23;3.00;;;;;;;-148.56;100.00;61375.16;4932537;28;20046;-27
2022/08/03 07:01:27;;;;;;;7.32;3.13;;;;;;;-148.56;100.00;61375.16;4939930;28;20034;-32
2022/08/03 07:03:53;;;;;;;9.88;3.30;;;;;;;-148.56;100.00;61375.16;4923984;28;20045;-25
2022/08/03 07:06:19;;;;;;;5.10;3.00;;;;;;;-148.56;100.00;61375.16;4937727;28;22190;-27
2022/08/03 07:08:44;;;;;;;7.00;3.17;;;;;;;-148.56;100.00;61375.16;4935108;28;20763;-26
2022/08/03 07:11:10;;;;;;;5.25;3.10;;;;;;;-148.56;100.00;61375.16;4934323;28;20088;-31
2022/08/03 07:13:35;;;;;;;6.22;3.10;;;;;;;-148.56;100.00;61375.16;4931619;28;20026;-29
2022/08/03 07:16:00;;;;;;;5.40;2.83;;;;;;;-148.56;100.00;61375.16;4931681;28;20034;-30
2022/08/03 07:18:26;;;;;;;6.75;2.80;;;;;;;-148.56;100.00;61375.16;4932702;28;20197;-27
2022/08/03 07:20:51;;;;;;;4.32;2.90;;;;;;;-148.56;100.00;61375.16;4934107;28;20034;-32
2022/08/03 07:23:17;;;;;;;7.45;2.60;;;;;;;-148.56;100.00;61375.16;4934101;28;20026;-27
2022/08/03 07:25:42;;;;;;;4.10;2.50;;;;;;;-148.56;100.00;61375.16;4932786;28;20034;-28
2022/08/03 07:28:07;;;;;;;4.78;2.63;;;;;;;-148.56;100.00;61375.16;4934743;28;20449;-28
2022/08/03 07:30:34;;;;;;;4.30;2.30;;;;;;;-148.56;100.00;61375.16;4934600;28;20033;-25
2022/08/03 07:32:59;;;;;;;4.28;2.60;;;;;;;-148.56;100.00;61375.16;4938912;28;20327;-28
2022/08/03 07:35:25;;;;;;;6.38;2.53;;;;;;;-148.56;100.00;61375.16;4927691;28;20677;-26
2022/08/03 07:37:51;;;;;;;3.60;2.47;;;;;;;-148.56;100.00;61375.16;4937167;28;20065;-29
2022/08/03 07:40:16;;;;;;;4.85;2.47;;;;;;;-148.56;100.00;61375.16;4931579;28;20383;-30
2022/08/03 07:42:41;;;;;;;3.25;2.35;;;;;;;-148.56;100.00;61375.16;4937360;28;20076;-31
2022/08/03 07:45:08;;;;;;;4.03;2.30;;;;;;;-148.56;100.00;61375.16;4933907;28;20022;-30
2022/08/03 07:47:33;;;;;;;2.97;2.22;;;;;;;-148.56;100.00;61375.16;4929325;28;20037;-26
2022/08/03 07:49:59;;;;;;;5.07;2.58;;;;;;;-148.56;100.00;61375.16;4929103;28;20022;-27
2022/08/03 07:55:09;;;;;;;4.88;2.13;;;;;;;-148.56;100.00;61375.16;4935095;28;20049;-30
2022/08/03 07:57:34;;;;;;;5.03;1.92;;;;;;;-148.56;100.00;61375.16;4936756;28;20282;-29
2022/08/03 08:00:00;;;;;;;4.75;2.15;;;;;;;-148.56;100.00;61375.16;4930289;28;20698;-34
2022/08/03 08:02:25;;;;;;;3.95;2.03;;;;;;;-148.56;100.00;61375.16;4930885;28;20034;-30
2022/08/03 08:04:51;;;;;;;3.38;2.30;;;;;;;-148.56;100.00;61375.16;4936953;28;21326;-28
2022/08/03 08:07:16;;;;;;;3.90;2.33;;;;;;;-148.56;100.00;61375.16;4934285;28;20034;-27
2022/08/03 08:09:41;;;;;;;3.00;2.10;;;;;;;-148.56;100.00;61375.16;4930762;28;20042;-29
2022/08/03 08:12:08;;;;;;;3.92;1.75;;;;;;;-148.56;100.00;61375.16;4926324;28;20852;-25
2022/08/03 08:14:34;;;;;;;3.88;2.17;;;;;;;-148.56;100.00;61375.16;4936022;28;20030;-31
2022/08/03 08:16:59;;;;;;;2.10;1.88;;;;;;;-148.56;100.00;61375.16;4929454;28;20076;-29
2022/08/03 08:19:25;;;;;;;4.00;1.65;;;;;;;-148.56;100.00;61375.16;4932019;28;20053;-25
2022/08/03 08:21:50;;;;;;;3.33;1.80;;;;;;;-148.56;100.00;61375.16;4935884;28;20060;-27
2022/08/03 08:24:15;;;;;;;1.88;1.60;;;;;;;-148.56;100.00;61375.16;4931383;28;21077;-28
2022/08/03 08:26:41;;;;;;;3.60;1.80;;;;;;;-148.56;100.00;61375.16;4937460;28;20031;-28
2022/08/03 08:29:06;;;;;;;2.20;1.90;;;;;;;-148.56;100.00;61375.16;4924277;28;20111;-26
2022/08/03 08:31:32;;;;;;;4.97;1.80;;;;;;;-148.56;100.00;61375.16;4931893;28;20794;-31
2022/08/03 08:33:57;;;;;;;6.60;1.95;;;;;;;-148.56;100.00;61375.16;4922758;28;20022;-29
2022/08/03 08:36:23;;;;;;;9.30;1.85;;;;;;;-148.56;100.00;61375.16;4933998;28;20026;-31
2022/08/03 08:38:48;;;;;;;8.93;2.13;;;;;;;-148.56;100.00;61375.16;4948201;28;20058;-25
2022/08/03 08:41:14;;;;;;;10.20;2.00;;;;;;;-148.56;100.00;61375.16;4930238;28;20077;-30
2022/08/03 08:43:39;;;;;;;5.25;2.13;;;;;;;-148.56;100.00;61375.16;4930364;28;20038;-28
2022/08/03 08:46:07;;;;;;;4.30;1.80;;;;;;;-148.56;100.00;61375.16;4936971;28;20044;-30
2022/08/03 08:48:32;;;;;;;5.78;1.98;;;;;;;-148.56;100.00;61375.16;4927120;28;21257;-27
2022/08/03 08:50:58;;;;;;;3.95;2.00;;;;;;;-148.56;100.00;61375.16;4928534;28;20030;-29
2022/08/03 08:53:27;;;;;;;3.70;1.95;;;;;;;-148.56;100.00;61375.16;4935675;28;20038;-30
2022/08/03 08:55:53;;;;;;;2.58;2.00;;;;;;;-148.56;100.00;61375.16;4931296;28;21036;-25
2022/08/03 08:58:18;;;;;;;4.60;2.80;;;;;;;-148.56;100.00;61375.16;4927808;28;20037;-27
2022/08/03 09:00:44;;;;;;;4.68;2.55;;;;;;;-148.56;100.00;61375.16;4929218;28;20026;-29
2022/08/03 09:03:10;;;;;;;11.73;3.20;;;;;;;-148.56;100.00;61375.16;4932210;28;20711;-27
2022/08/03 09:05:37;;;;;;;17.92;3.75;;;;;;;-148.56;100.00;61375.16;4923439;28;20041;-28
2022/08/03 09:08:04;;;;;;;14.55;3.47;;;;;;;-148.56;100.00;61375.16;4928774;28;20026;-26
2022/08/03 09:10:29;;;;;;;6.47;3.45;;;;;;;-148.56;100.00;61375.16;4938054;28;21312;-29
2022/08/03 09:12:55;;;;;;;7.93;3.72;;;;;;;-148.56;100.00;61375.16;4936681;28;22962;-28
2022/08/03 09:15:30;;;;;;;9.18;3.83;;;;;;;-148.56;100.00;61375.16;4945389;28;20604;-28
2022/08/03 09:17:56;;;;;;;11.10;3.83;;;;;;;-148.56;100.00;61375.16;4942002;28;20133;-27
2022/08/03 09:20:22;;;;;;;10.70;3.83;;;;;;;-148.56;100.00;61375.16;4944677;28;20043;-29
2022/08/03 09:22:55;;;;;;;13.70;3.88;;;;;;;-148.56;100.00;61375.16;4941042;28;20719;-29
2022/08/03 09:25:41;;;;;;;11.52;4.60;;;;;;;-148.56;100.00;61375.16;4947934;28;20046;-30
2022/08/03 09:28:07;;;;;;;11.95;4.55;;;;;;;-148.56;100.00;61375.16;4944781;28;20030;-29
2022/08/03 09:30:33;;;;;;;14.07;4.80;;;;;;;-148.56;100.00;61375.16;4946506;28;20057;-28
2022/08/03 09:33:11;;;;;;;10.25;4.60;;;;;;;-148.56;100.00;61375.16;4938948;28;20038;-32
2022/08/03 09:35:44;;;;;;;12.18;4.28;;;;;;;-148.56;100.00;61375.16;4944191;28;20686;-28
2022/08/03 09:38:09;;;;;;;11.75;4.80;;;;;;;-148.56;100.00;61375.16;4947222;28;20034;-31
2022/08/03 09:40:37;;;;;;;12.23;4.90;;;;;;;-148.56;100.00;61375.16;4941343;28;20890;-29
2022/08/03 09:43:03;;;;;;;12.60;5.03;;;;;;;-148.56;100.00;61375.16;4944661;28;20038;-30
2022/08/03 09:45:28;;;;;;;10.25;4.28;;;;;;;-148.56;100.00;61375.16;4950873;28;20859;-31
2022/08/03 09:47:55;;;;;;;11.43;4.72;;;;;;;-148.56;100.00;61375.16;4948506;28;20049;-30
2022/08/03 09:50:21;;;;;;;9.13;4.35;;;;;;;-148.56;100.00;61375.16;4951830;28;20030;-25
2022/08/03 09:52:49;;;;;;;9.63;4.47;;;;;;;-148.56;100.00;61375.16;4942208;28;20641;-27
2022/08/03 09:55:15;;;;;;;12.40;4.38;;;;;;;-148.56;100.00;61375.16;4947465;28;20144;-29
2022/08/03 09:57:44;;;;;;;10.90;4.72;;;;;;;-148.56;100.00;61375.16;4939852;28;20696;-30
2022/08/03 10:00:11;;;;;;;10.20;4.05;;;;;;;-148.56;100.00;61375.16;4948159;28;20062;-28
2022/08/03 10:02:38;;;;;;;10.75;4.07;;;;;;;-148.56;100.00;61375.16;4943065;28;20096;-26
2022/08/03 10:05:04;;;;;;;10.07;4.50;;;;;;;-148.56;100.00;61375.16;4938980;28;20030;-27
2022/08/03 10:07:29;;;;;;;9.98;4.20;;;;;;;-148.56;100.00;61375.16;4947035;28;21828;-27
2022/08/03 10:09:59;;;;;;;10.27;3.70;;;;;;;-148.56;100.00;61375.16;4919554;28;20034;-30
2022/08/03 10:12:25;;;;;;;8.63;3.72;;;;;;;-148.56;100.00;61375.16;4948744;28;20060;-30
2022/08/03 10:14:51;;;;;;;8.00;3.88;;;;;;;-148.56;100.00;61375.16;4944883;28;20018;-27
2022/08/03 10:17:16;;;;;;;9.38;4.00;;;;;;;-148.56;100.00;61375.16;4943942;28;20037;-31
2022/08/03 10:19:42;;;;;;;11.57;4.05;;;;;;;-148.56;100.00;61375.16;4943106;28;20061;-33
2022/08/03 10:22:31;;;;;;;7.25;3.53;;;;;;;-148.56;100.00;61375.16;4943402;28;20034;-28
2022/08/03 10:25:03;;;;;;;8.77;3.60;;;;;;;-148.56;100.00;61375.16;4948643;28;20035;-30
2022/08/03 10:27:33;;;;;;;8.18;3.78;;;;;;;-148.56;100.00;61375.16;4948515;28;20080;-28
2022/08/03 10:30:02;;;;;;;9.00;3.60;;;;;;;-148.56;100.00;61375.16;4950753;28;20034;-31
2022/08/03 10:32:41;;;;;;;7.07;3.33;;;;;;;-148.56;100.00;61375.16;4946843;28;20162;-27
2022/08/03 10:35:12;;;;;;;10.05;3.63;;;;;;;-148.56;100.00;61375.16;4946418;28;20026;-32
2022/08/03 10:37:44;;;;;;;7.38;3.20;;;;;;;-148.56;100.00;61375.16;4950343;28;20030;-26
2022/08/03 10:40:15;;;;;;;6.90;3.30;;;;;;;-148.56;100.00;61375.16;4945753;28;20765;-30
2022/08/03 10:42:43;;;;;;;8.35;3.63;;;;;;;-148.56;100.00;61375.16;4949347;28;20031;-28
2022/08/03 10:45:15;;;;;;;7.47;3.30;;;;;;;-148.56;100.00;61375.16;4941571;28;20669;-27
2022/08/03 10:47:40;;;;;;;7.55;3.45;;;;;;;-148.56;100.00;61375.16;4944614;28;20318;-30
2022/08/03 10:50:06;;;;;;;8.25;2.90;;;;;;;-148.56;100.00;61375.16;4943176;28;20828;-25
2022/08/03 10:52:31;;;;;;;7.03;3.20;;;;;;;-148.56;100.00;61375.16;4945050;28;20042;-29
2022/08/03 10:57:48;;;;;;;6.25;3.15;;;;;;;-148.56;100.00;61375.16;4949533;28;20656;-30
2022/08/03 11:00:15;;;;;;;7.93;3.28;;;;;;;-148.56;100.00;61375.16;4945080;28;20594;-29
2022/08/03 11:03:03;;;;;;;7.43;3.10;;;;;;;-148.56;100.00;61375.16;4938713;28;20180;-27
2022/08/03 11:05:30;;;;;;;6.38;3.17;;;;;;;-148.56;100.00;61375.16;4938307;28;20770;-28
2022/08/03 11:08:30;;;;;;;6.50;2.88;;;;;;;-148.56;100.00;61375.16;4946966;28;20140;-29
2022/08/03 11:11:00;;;;;;;6.85;3.08;;;;;;;-148.56;100.00;61375.16;4949399;28;20030;-24
2022/08/03 11:13:29;;;;;;;6.22;3.22;;;;;;;-148.56;100.00;61375.16;4948223;28;20042;-29
2022/08/03 11:15:56;;;;;;;7.13;3.20;;;;;;;-148.56;100.00;61375.16;4949492;28;20125;-28
2022/08/03 11:18:21;;;;;;;5.32;2.85;;;;;;;-148.56;100.00;61375.16;4949827;28;20149;-29